sensor_id;sensor_type;location;lat;lon;timestamp;pressure;altitude;pressure_sealevel;temperature;humidity
71195;BME280;58908;51.426;7.714;2023-06-10T00:00:22;99669.91;;;16.39;100.00
71195;BME280;58908;51.426;7.714;2023-06-10T00:02:48;99664.22;;;16.32;100.00
71195;BME280;58908;51.426;7.714;2023-06-10T00:05:15;99669.06;;;16.27;100.00
71195;BME280;58908;51.426;7.714;2023-06-10T00:07:43;99671.19;;;16.02;100.00
71195;BME280;58908;51.426;7.714;2023-06-10T00:10:11;99675.56;;;15.81;100.00
71195;BME280;58908;51.426;7.714;2023-06-10T00:12:37;99674.34;;;15.74;100.00
71195;BME280;58908;51.426;7.714;2023-06-10T00:15:05;99672.28;;;15.88;100.00
71195;BME280;58908;51.426;7.714;2023-06-10T00:17:32;99666.09;;;15.99;100.00
71195;BME280;58908;51.426;7.714;2023-06-10T00:19:58;99669.84;;;16.07;100.00
71195;BME280;58908;51.426;7.714;2023-06-10T00:22:24;99667.41;;;16.04;100.00
71195;BME280;58908;51.426;7.714;2023-06-10T00:24:55;99665.25;;;15.98;100.00
71195;BME280;58908;51.426;7.714;2023-06-10T00:27:22;99668.28;;;15.94;100.00
71195;BME280;58908;51.426;7.714;2023-06-10T00:29:48;99665.88;;;15.91;100.00
71195;BME280;58908;51.426;7.714;2023-06-10T00:32:14;99670.47;;;16.00;100.00
71195;BME280;58908;51.426;7.714;2023-06-10T00:34:40;99664.91;;;16.03;100.00
71195;BME280;58908;51.426;7.714;2023-06-10T00:37:07;99669.94;;;16.17;100.00
71195;BME280;58908;51.426;7.714;2023-06-10T00:39:33;99672.47;;;16.29;100.00
71195;BME280;58908;51.426;7.714;2023-06-10T00:42:00;99669.81;;;16.18;100.00
71195;BME280;58908;51.426;7.714;2023-06-10T00:44:27;99670.06;;;16.15;100.00
71195;BME280;58908;51.426;7.714;2023-06-10T00:46:53;99671.03;;;16.14;100.00
71195;BME280;58908;51.426;7.714;2023-06-10T00:49:20;99664.84;;;16.25;100.00
71195;BME280;58908;51.426;7.714;2023-06-10T00:51:47;99663.00;;;16.25;100.00
71195;BME280;58908;51.426;7.714;2023-06-10T00:54:13;99669.59;;;16.10;100.00
71195;BME280;58908;51.426;7.714;2023-06-10T00:56:39;99669.00;;;16.07;100.00
71195;BME280;58908;51.426;7.714;2023-06-10T00:59:09;99662.09;;;15.93;100.00
71195;BME280;58908;51.426;7.714;2023-06-10T01:01:35;99662.00;;;15.84;100.00
71195;BME280;58908;51.426;7.714;2023-06-10T01:04:02;99664.41;;;15.87;100.00
71195;BME280;58908;51.426;7.714;2023-06-10T01:06:31;99670.50;;;15.89;100.00
71195;BME280;58908;51.426;7.714;2023-06-10T01:09:04;99669.88;;;15.85;100.00
71195;BME280;58908;51.426;7.714;2023-06-10T01:11:34;99667.84;;;15.67;100.00
71195;BME280;58908;51.426;7.714;2023-06-10T01:14:00;99670.97;;;15.61;100.00
71195;BME280;58908;51.426;7.714;2023-06-10T01:16:28;99674.94;;;15.44;100.00
71195;BME280;58908;51.426;7.714;2023-06-10T01:18:54;99679.53;;;15.31;100.00
71195;BME280;58908;51.426;7.714;2023-06-10T01:21:23;99679.13;;;15.25;100.00
71195;BME280;58908;51.426;7.714;2023-06-10T01:23:51;99686.34;;;15.12;100.00
71195;BME280;58908;51.426;7.714;2023-06-10T01:26:18;99675.22;;;15.63;100.00
71195;BME280;58908;51.426;7.714;2023-06-10T01:28:48;99673.25;;;15.76;100.00
71195;BME280;58908;51.426;7.714;2023-06-10T01:31:20;99684.38;;;15.48;100.00
71195;BME280;58908;51.426;7.714;2023-06-10T01:33:51;99682.50;;;15.27;100.00
71195;BME280;58908;51.426;7.714;2023-06-10T01:36:18;99685.25;;;15.14;100.00
71195;BME280;58908;51.426;7.714;2023-06-10T01:38:47;99685.78;;;14.85;100.00
71195;BME280;58908;51.426;7.714;2023-06-10T01:41:14;99692.75;;;14.75;100.00
71195;BME280;58908;51.426;7.714;2023-06-10T01:43:42;99692.94;;;14.61;100.00
71195;BME280;58908;51.426;7.714;2023-06-10T01:46:08;99687.81;;;14.47;100.00
71195;BME280;58908;51.426;7.714;2023-06-10T01:48:37;99692.94;;;14.38;100.00
71195;BME280;58908;51.426;7.714;2023-06-10T01:51:03;99690.19;;;14.39;100.00
71195;BME280;58908;51.426;7.714;2023-06-10T01:53:29;99692.31;;;14.57;100.00
71195;BME280;58908;51.426;7.714;2023-06-10T01:55:57;99689.03;;;14.77;100.00
71195;BME280;58908;51.426;7.714;2023-06-10T01:58:23;99690.78;;;14.66;100.00
71195;BME280;58908;51.426;7.714;2023-06-10T02:00:49;99695.41;;;14.28;100.00
71195;BME280;58908;51.426;7.714;2023-06-10T02:03:16;99694.47;;;14.29;100.00
71195;BME280;58908;51.426;7.714;2023-06-10T02:05:42;99701.59;;;14.29;100.00
71195;BME280;58908;51.426;7.714;2023-06-10T02:08:10;99706.25;;;14.13;100.00
71195;BME280;58908;51.426;7.714;2023-06-10T02:10:37;99700.47;;;14.08;100.00
71195;BME280;58908;51.426;7.714;2023-06-10T02:13:04;99704.69;;;14.23;100.00
71195;BME280;58908;51.426;7.714;2023-06-10T02:15:31;99700.09;;;14.25;100.00
71195;BME280;58908;51.426;7.714;2023-06-10T02:17:57;99694.06;;;14.23;100.00
71195;BME280;58908;51.426;7.714;2023-06-10T02:20:23;99691.22;;;14.13;100.00
71195;BME280;58908;51.426;7.714;2023-06-10T02:22:50;99698.63;;;14.21;100.00
71195;BME280;58908;51.426;7.714;2023-06-10T02:25:16;99697.00;;;14.31;100.00
71195;BME280;58908;51.426;7.714;2023-06-10T02:27:43;99698.47;;;14.35;100.00
71195;BME280;58908;51.426;7.714;2023-06-10T02:30:11;99700.16;;;14.36;100.00
71195;BME280;58908;51.426;7.714;2023-06-10T02:32:38;99702.09;;;14.34;100.00
71195;BME280;58908;51.426;7.714;2023-06-10T02:35:06;99707.97;;;14.26;100.00
71195;BME280;58908;51.426;7.714;2023-06-10T02:37:32;99698.47;;;14.35;100.00
71195;BME280;58908;51.426;7.714;2023-06-10T02:39:58;99701.13;;;14.35;100.00
71195;BME280;58908;51.426;7.714;2023-06-10T02:42:25;99699.97;;;14.39;100.00
71195;BME280;58908;51.426;7.714;2023-06-10T02:44:51;99701.09;;;14.47;100.00
71195;BME280;58908;51.426;7.714;2023-06-10T02:47:18;99697.91;;;14.42;100.00
71195;BME280;58908;51.426;7.714;2023-06-10T02:49:45;99699.38;;;14.23;100.00
71195;BME280;58908;51.426;7.714;2023-06-10T02:52:11;99705.13;;;14.17;100.00
71195;BME280;58908;51.426;7.714;2023-06-10T02:54:37;99701.53;;;14.18;100.00
71195;BME280;58908;51.426;7.714;2023-06-10T02:57:04;99693.25;;;13.97;100.00
71195;BME280;58908;51.426;7.714;2023-06-10T02:59:31;99702.72;;;13.89;100.00
71195;BME280;58908;51.426;7.714;2023-06-10T03:01:57;99703.59;;;13.77;100.00
71195;BME280;58908;51.426;7.714;2023-06-10T03:04:25;99712.38;;;13.77;100.00
71195;BME280;58908;51.426;7.714;2023-06-10T03:06:54;99703.16;;;13.83;100.00
71195;BME280;58908;51.426;7.714;2023-06-10T03:09:20;99708.44;;;13.83;100.00
71195;BME280;58908;51.426;7.714;2023-06-10T03:11:46;99703.59;;;13.77;100.00
71195;BME280;58908;51.426;7.714;2023-06-10T03:14:14;99700.63;;;13.69;100.00
71195;BME280;58908;51.426;7.714;2023-06-10T03:16:40;99708.28;;;13.61;100.00
71195;BME280;58908;51.426;7.714;2023-06-10T03:19:07;99712.53;;;13.51;100.00
71195;BME280;58908;51.426;7.714;2023-06-10T03:21:35;99710.09;;;13.48;100.00
71195;BME280;58908;51.426;7.714;2023-06-10T03:24:02;99708.09;;;13.39;100.00
71195;BME280;58908;51.426;7.714;2023-06-10T03:26:28;99704.69;;;13.49;100.00
71195;BME280;58908;51.426;7.714;2023-06-10T03:28:55;99702.78;;;13.39;100.00
71195;BME280;58908;51.426;7.714;2023-06-10T03:31:21;99700.56;;;13.33;100.00
71195;BME280;58908;51.426;7.714;2023-06-10T03:33:49;99704.38;;;13.29;100.00
71195;BME280;58908;51.426;7.714;2023-06-10T03:36:16;99709.78;;;13.27;100.00
71195;BME280;58908;51.426;7.714;2023-06-10T03:38:43;99717.19;;;13.35;100.00
71195;BME280;58908;51.426;7.714;2023-06-10T03:41:09;99721.13;;;13.42;100.00
71195;BME280;58908;51.426;7.714;2023-06-10T03:43:36;99715.16;;;13.26;100.00
71195;BME280;58908;51.426;7.714;2023-06-10T03:46:03;99719.31;;;13.30;100.00
71195;BME280;58908;51.426;7.714;2023-06-10T03:48:30;99727.25;;;13.42;100.00
71195;BME280;58908;51.426;7.714;2023-06-10T03:50:56;99720.16;;;13.43;100.00
71195;BME280;58908;51.426;7.714;2023-06-10T03:53:23;99731.09;;;13.51;100.00
71195;BME280;58908;51.426;7.714;2023-06-10T03:55:51;99730.34;;;13.61;100.00
71195;BME280;58908;51.426;7.714;2023-06-10T03:58:17;99732.03;;;13.62;100.00
71195;BME280;58908;51.426;7.714;2023-06-10T04:00:44;99726.31;;;13.68;100.00
71195;BME280;58908;51.426;7.714;2023-06-10T04:03:10;99733.50;;;13.66;100.00
71195;BME280;58908;51.426;7.714;2023-06-10T04:05:39;99723.75;;;13.54;100.00
71195;BME280;58908;51.426;7.714;2023-06-10T04:08:05;99730.22;;;13.63;100.00
71195;BME280;58908;51.426;7.714;2023-06-10T04:10:31;99729.56;;;13.72;100.00
71195;BME280;58908;51.426;7.714;2023-06-10T04:12:59;99722.47;;;13.72;100.00
71195;BME280;58908;51.426;7.714;2023-06-10T04:15:25;99730.84;;;13.79;100.00
71195;BME280;58908;51.426;7.714;2023-06-10T04:17:52;99734.88;;;13.84;100.00
71195;BME280;58908;51.426;7.714;2023-06-10T04:20:18;99736.78;;;13.95;100.00
71195;BME280;58908;51.426;7.714;2023-06-10T04:22:44;99737.94;;;13.91;100.00
71195;BME280;58908;51.426;7.714;2023-06-10T04:25:11;99741.53;;;14.02;100.00
71195;BME280;58908;51.426;7.714;2023-06-10T04:27:37;99743.41;;;14.13;100.00
71195;BME280;58908;51.426;7.714;2023-06-10T04:30:05;99747.84;;;14.25;100.00
71195;BME280;58908;51.426;7.714;2023-06-10T04:32:32;99748.38;;;14.30;100.00
71195;BME280;58908;51.426;7.714;2023-06-10T04:34:59;99751.44;;;14.36;100.00
71195;BME280;58908;51.426;7.714;2023-06-10T04:37:26;99747.28;;;14.44;100.00
71195;BME280;58908;51.426;7.714;2023-06-10T04:39:54;99748.63;;;14.50;100.00
71195;BME280;58908;51.426;7.714;2023-06-10T04:42:20;99745.41;;;14.57;100.00
71195;BME280;58908;51.426;7.714;2023-06-10T04:44:46;99748.34;;;14.65;100.00
71195;BME280;58908;51.426;7.714;2023-06-10T04:47:14;99744.50;;;14.69;100.00
71195;BME280;58908;51.426;7.714;2023-06-10T04:49:42;99744.78;;;14.77;100.00
71195;BME280;58908;51.426;7.714;2023-06-10T04:52:08;99755.56;;;14.87;100.00
71195;BME280;58908;51.426;7.714;2023-06-10T04:54:35;99757.19;;;15.00;100.00
71195;BME280;58908;51.426;7.714;2023-06-10T04:57:01;99750.22;;;15.10;100.00
71195;BME280;58908;51.426;7.714;2023-06-10T04:59:27;99738.91;;;15.19;100.00
71195;BME280;58908;51.426;7.714;2023-06-10T05:01:54;99745.00;;;15.32;100.00
71195;BME280;58908;51.426;7.714;2023-06-10T05:04:23;99754.56;;;15.35;100.00
71195;BME280;58908;51.426;7.714;2023-06-10T05:06:49;99743.22;;;15.55;100.00
71195;BME280;58908;51.426;7.714;2023-06-10T05:09:15;99733.59;;;15.98;100.00
71195;BME280;58908;51.426;7.714;2023-06-10T05:11:41;99732.47;;;16.33;100.00
71195;BME280;58908;51.426;7.714;2023-06-10T05:14:08;99727.59;;;16.49;100.00
71195;BME280;58908;51.426;7.714;2023-06-10T05:16:34;99727.34;;;16.63;100.00
71195;BME280;58908;51.426;7.714;2023-06-10T05:19:00;99730.56;;;16.78;100.00
71195;BME280;58908;51.426;7.714;2023-06-10T05:21:28;99717.66;;;16.93;100.00
71195;BME280;58908;51.426;7.714;2023-06-10T05:23:54;99724.13;;;17.11;100.00
71195;BME280;58908;51.426;7.714;2023-06-10T05:26:20;99726.38;;;17.16;100.00
71195;BME280;58908;51.426;7.714;2023-06-10T05:28:47;99722.06;;;17.35;100.00
71195;BME280;58908;51.426;7.714;2023-06-10T05:31:13;99721.41;;;17.43;100.00
71195;BME280;58908;51.426;7.714;2023-06-10T05:33:40;99716.13;;;17.52;100.00
71195;BME280;58908;51.426;7.714;2023-06-10T05:36:06;99711.16;;;17.68;100.00
71195;BME280;58908;51.426;7.714;2023-06-10T05:38:34;99718.03;;;17.71;100.00
71195;BME280;58908;51.426;7.714;2023-06-10T05:41:00;99714.88;;;17.86;100.00
71195;BME280;58908;51.426;7.714;2023-06-10T05:43:26;99721.50;;;17.92;100.00
71195;BME280;58908;51.426;7.714;2023-06-10T05:45:53;99724.94;;;18.03;100.00
71195;BME280;58908;51.426;7.714;2023-06-10T05:48:19;99727.59;;;18.03;100.00
71195;BME280;58908;51.426;7.714;2023-06-10T05:50:46;99726.53;;;18.25;100.00
71195;BME280;58908;51.426;7.714;2023-06-10T05:53:13;99724.72;;;18.25;100.00
71195;BME280;58908;51.426;7.714;2023-06-10T05:55:42;99721.41;;;18.42;100.00
71195;BME280;58908;51.426;7.714;2023-06-10T05:58:08;99724.78;;;18.35;100.00
71195;BME280;58908;51.426;7.714;2023-06-10T06:00:34;99723.44;;;18.50;100.00
71195;BME280;58908;51.426;7.714;2023-06-10T06:03:00;99725.69;;;18.64;100.00
71195;BME280;58908;51.426;7.714;2023-06-10T06:05:27;99721.03;;;18.75;100.00
71195;BME280;58908;51.426;7.714;2023-06-10T06:07:53;99721.47;;;18.90;100.00
71195;BME280;58908;51.426;7.714;2023-06-10T06:10:19;99720.78;;;19.16;100.00
71195;BME280;58908;51.426;7.714;2023-06-10T06:12:47;99720.91;;;19.15;100.00
71195;BME280;58908;51.426;7.714;2023-06-10T06:15:13;99716.16;;;19.18;100.00
71195;BME280;58908;51.426;7.714;2023-06-10T06:17:39;99720.63;;;19.46;100.00
71195;BME280;58908;51.426;7.714;2023-06-10T06:20:06;99722.25;;;19.75;100.00
71195;BME280;58908;51.426;7.714;2023-06-10T06:22:32;99723.97;;;20.57;99.18
71195;BME280;58908;51.426;7.714;2023-06-10T06:24:59;99715.13;;;21.27;90.25
71195;BME280;58908;51.426;7.714;2023-06-10T06:27:25;99708.34;;;21.91;84.71
71195;BME280;58908;51.426;7.714;2023-06-10T06:29:52;99711.81;;;22.09;85.12
71195;BME280;58908;51.426;7.714;2023-06-10T06:32:19;99703.84;;;22.98;82.25
71195;BME280;58908;51.426;7.714;2023-06-10T06:34:45;99718.25;;;22.65;81.10
71195;BME280;58908;51.426;7.714;2023-06-10T06:37:12;99701.66;;;23.66;79.07
71195;BME280;58908;51.426;7.714;2023-06-10T06:39:38;99713.31;;;23.50;79.69
71195;BME280;58908;51.426;7.714;2023-06-10T06:42:04;99723.31;;;22.68;82.19
71195;BME280;58908;51.426;7.714;2023-06-10T06:44:31;99715.34;;;23.56;79.15
71195;BME280;58908;51.426;7.714;2023-06-10T06:46:59;99710.16;;;24.09;75.74
71195;BME280;58908;51.426;7.714;2023-06-10T06:49:25;99711.06;;;25.23;71.48
71195;BME280;58908;51.426;7.714;2023-06-10T06:51:51;99716.03;;;24.21;75.00
71195;BME280;58908;51.426;7.714;2023-06-10T06:54:17;99704.97;;;24.08;73.02
71195;BME280;58908;51.426;7.714;2023-06-10T06:56:44;99704.00;;;25.22;71.77
71195;BME280;58908;51.426;7.714;2023-06-10T06:59:10;99709.13;;;25.32;70.83
71195;BME280;58908;51.426;7.714;2023-06-10T07:01:38;99708.19;;;25.62;67.36
71195;BME280;58908;51.426;7.714;2023-06-10T07:04:06;99717.91;;;25.34;68.75
71195;BME280;58908;51.426;7.714;2023-06-10T07:06:32;99715.44;;;24.72;69.66
71195;BME280;58908;51.426;7.714;2023-06-10T07:08:59;99718.25;;;25.08;68.94
71195;BME280;58908;51.426;7.714;2023-06-10T07:11:25;99713.75;;;25.01;66.71
71195;BME280;58908;51.426;7.714;2023-06-10T07:13:51;99712.84;;;24.86;66.68
71195;BME280;58908;51.426;7.714;2023-06-10T07:16:17;99719.56;;;25.12;66.03
71195;BME280;58908;51.426;7.714;2023-06-10T07:18:45;99717.34;;;25.16;65.46
71195;BME280;58908;51.426;7.714;2023-06-10T07:21:13;99720.00;;;24.41;65.77
71195;BME280;58908;51.426;7.714;2023-06-10T07:23:41;99713.31;;;24.89;62.96
71195;BME280;58908;51.426;7.714;2023-06-10T07:26:07;99716.97;;;25.19;62.48
71195;BME280;58908;51.426;7.714;2023-06-10T07:28:36;99724.78;;;25.36;62.79
71195;BME280;58908;51.426;7.714;2023-06-10T07:31:02;99727.66;;;26.09;61.38
71195;BME280;58908;51.426;7.714;2023-06-10T07:33:28;99722.91;;;25.22;63.73
71195;BME280;58908;51.426;7.714;2023-06-10T07:35:55;99717.81;;;25.42;61.49
71195;BME280;58908;51.426;7.714;2023-06-10T07:38:22;99721.13;;;26.18;62.05
71195;BME280;58908;51.426;7.714;2023-06-10T07:40:49;99723.34;;;26.43;60.16
71195;BME280;58908;51.426;7.714;2023-06-10T07:43:15;99717.34;;;26.98;58.55
71195;BME280;58908;51.426;7.714;2023-06-10T07:45:41;99720.44;;;26.59;60.76
71195;BME280;58908;51.426;7.714;2023-06-10T07:48:07;99722.19;;;25.80;60.91
71195;BME280;58908;51.426;7.714;2023-06-10T07:50:34;99722.59;;;25.91;59.66
71195;BME280;58908;51.426;7.714;2023-06-10T07:53:00;99720.19;;;26.25;60.54
71195;BME280;58908;51.426;7.714;2023-06-10T07:55:28;99728.56;;;26.01;62.24
71195;BME280;58908;51.426;7.714;2023-06-10T07:57:55;99724.63;;;27.12;59.22
71195;BME280;58908;51.426;7.714;2023-06-10T08:00:21;99719.72;;;27.22;59.58
71195;BME280;58908;51.426;7.714;2023-06-10T08:02:47;99723.78;;;26.97;58.59
71195;BME280;58908;51.426;7.714;2023-06-10T08:05:13;99737.09;;;25.16;62.70
71195;BME280;58908;51.426;7.714;2023-06-10T08:07:40;99734.22;;;25.77;64.49
71195;BME280;58908;51.426;7.714;2023-06-10T08:10:06;99730.25;;;26.31;61.35
71195;BME280;58908;51.426;7.714;2023-06-10T08:12:34;99729.31;;;26.24;60.98
71195;BME280;58908;51.426;7.714;2023-06-10T08:15:01;99724.38;;;28.03;57.84
71195;BME280;58908;51.426;7.714;2023-06-10T08:17:29;99726.69;;;28.06;56.96
71195;BME280;58908;51.426;7.714;2023-06-10T08:19:55;99725.63;;;26.90;58.25
71195;BME280;58908;51.426;7.714;2023-06-10T08:22:21;99728.97;;;25.98;57.47
71195;BME280;58908;51.426;7.714;2023-06-10T08:24:48;99729.94;;;27.47;55.29
71195;BME280;58908;51.426;7.714;2023-06-10T08:27:14;99723.19;;;27.37;53.48
71195;BME280;58908;51.426;7.714;2023-06-10T08:29:42;99721.13;;;27.87;53.19
71195;BME280;58908;51.426;7.714;2023-06-10T08:32:08;99729.66;;;27.36;55.65
71195;BME280;58908;51.426;7.714;2023-06-10T08:34:34;99735.63;;;27.73;55.14
71195;BME280;58908;51.426;7.714;2023-06-10T08:37:01;99722.13;;;27.58;55.68
71195;BME280;58908;51.426;7.714;2023-06-10T08:39:27;99721.78;;;28.63;52.72
71195;BME280;58908;51.426;7.714;2023-06-10T08:41:59;99720.13;;;29.35;54.99
71195;BME280;58908;51.426;7.714;2023-06-10T08:44:27;99722.75;;;27.12;55.50
71195;BME280;58908;51.426;7.714;2023-06-10T08:46:55;99719.84;;;26.78;56.98
71195;BME280;58908;51.426;7.714;2023-06-10T08:49:21;99722.94;;;27.59;55.48
71195;BME280;58908;51.426;7.714;2023-06-10T08:51:49;99733.41;;;27.14;58.49
71195;BME280;58908;51.426;7.714;2023-06-10T08:54:17;99727.66;;;26.52;60.41
71195;BME280;58908;51.426;7.714;2023-06-10T08:56:43;99725.03;;;27.57;59.10
71195;BME280;58908;51.426;7.714;2023-06-10T08:59:11;99731.16;;;26.67;60.89
71195;BME280;58908;51.426;7.714;2023-06-10T09:01:37;99717.81;;;26.66;59.59
71195;BME280;58908;51.426;7.714;2023-06-10T09:04:05;99726.13;;;27.62;58.06
71195;BME280;58908;51.426;7.714;2023-06-10T09:06:32;99729.88;;;27.41;59.38
71195;BME280;58908;51.426;7.714;2023-06-10T09:08:58;99726.16;;;27.69;58.31
71195;BME280;58908;51.426;7.714;2023-06-10T09:11:25;99722.06;;;27.73;57.47
71195;BME280;58908;51.426;7.714;2023-06-10T09:13:51;99726.75;;;27.64;59.99
71195;BME280;58908;51.426;7.714;2023-06-10T09:16:18;99721.84;;;28.02;59.60
71195;BME280;58908;51.426;7.714;2023-06-10T09:18:44;99730.94;;;27.67;59.40
71195;BME280;58908;51.426;7.714;2023-06-10T09:21:12;99723.88;;;27.93;58.77
71195;BME280;58908;51.426;7.714;2023-06-10T09:23:38;99721.53;;;29.12;57.44
71195;BME280;58908;51.426;7.714;2023-06-10T09:26:07;99720.16;;;28.82;59.07
71195;BME280;58908;51.426;7.714;2023-06-10T09:28:34;99718.00;;;28.24;60.41
71195;BME280;58908;51.426;7.714;2023-06-10T09:31:01;99717.41;;;28.28;59.32
71195;BME280;58908;51.426;7.714;2023-06-10T09:33:27;99715.25;;;27.83;58.27
71195;BME280;58908;51.426;7.714;2023-06-10T09:35:54;99718.03;;;27.69;61.20
71195;BME280;58908;51.426;7.714;2023-06-10T09:38:23;99710.31;;;27.93;59.57
71195;BME280;58908;51.426;7.714;2023-06-10T09:40:49;99716.75;;;27.65;60.97
71195;BME280;58908;51.426;7.714;2023-06-10T09:43:16;99711.25;;;27.52;61.80
71195;BME280;58908;51.426;7.714;2023-06-10T09:45:43;99717.28;;;27.54;60.41
71195;BME280;58908;51.426;7.714;2023-06-10T09:48:09;99714.97;;;27.99;60.69
71195;BME280;58908;51.426;7.714;2023-06-10T09:50:41;99709.41;;;28.95;59.58
71195;BME280;58908;51.426;7.714;2023-06-10T09:53:07;99712.56;;;29.18;56.77
71195;BME280;58908;51.426;7.714;2023-06-10T09:55:36;99713.88;;;27.94;59.68
71195;BME280;58908;51.426;7.714;2023-06-10T09:58:03;99710.13;;;27.67;60.33
71195;BME280;58908;51.426;7.714;2023-06-10T10:00:31;99710.09;;;28.22;58.03
71195;BME280;58908;51.426;7.714;2023-06-10T10:02:58;99704.94;;;28.87;57.33
71195;BME280;58908;51.426;7.714;2023-06-10T10:05:24;99708.56;;;28.47;58.07
71195;BME280;58908;51.426;7.714;2023-06-10T10:07:51;99704.94;;;28.87;57.50
71195;BME280;58908;51.426;7.714;2023-06-10T10:10:18;99705.13;;;28.32;59.13
71195;BME280;58908;51.426;7.714;2023-06-10T10:12:47;99705.81;;;27.73;59.29
71195;BME280;58908;51.426;7.714;2023-06-10T10:15:13;99698.28;;;28.02;58.75
71195;BME280;58908;51.426;7.714;2023-06-10T10:17:47;99703.50;;;28.04;58.85
71195;BME280;58908;51.426;7.714;2023-06-10T10:20:16;99706.09;;;27.15;59.34
71195;BME280;58908;51.426;7.714;2023-06-10T10:22:43;99698.91;;;28.04;60.92
71195;BME280;58908;51.426;7.714;2023-06-10T10:25:13;99692.78;;;28.23;58.75
71195;BME280;58908;51.426;7.714;2023-06-10T10:27:43;99705.81;;;27.73;59.01
71195;BME280;58908;51.426;7.714;2023-06-10T10:30:12;99702.41;;;27.98;58.06
71195;BME280;58908;51.426;7.714;2023-06-10T10:32:40;99702.25;;;27.51;57.85
71195;BME280;58908;51.426;7.714;2023-06-10T10:35:11;99697.16;;;27.63;58.84
71195;BME280;58908;51.426;7.714;2023-06-10T10:37:39;99692.91;;;28.49;56.88
71195;BME280;58908;51.426;7.714;2023-06-10T10:40:06;99685.63;;;27.82;57.35
71195;BME280;58908;51.426;7.714;2023-06-10T10:42:33;99681.75;;;27.97;58.63
71195;BME280;58908;51.426;7.714;2023-06-10T10:45:00;99689.94;;;28.38;58.41
71195;BME280;58908;51.426;7.714;2023-06-10T10:47:28;99690.97;;;28.03;58.38
71195;BME280;58908;51.426;7.714;2023-06-10T10:49:57;99690.72;;;27.70;57.93
71195;BME280;58908;51.426;7.714;2023-06-10T10:52:24;99689.50;;;27.46;57.77
71195;BME280;58908;51.426;7.714;2023-06-10T10:54:50;99689.56;;;27.52;58.98
71195;BME280;58908;51.426;7.714;2023-06-10T10:57:19;99681.22;;;27.53;58.28
71195;BME280;58908;51.426;7.714;2023-06-10T10:59:52;99682.22;;;27.73;58.37
71195;BME280;58908;51.426;7.714;2023-06-10T11:02:33;99677.91;;;28.19;56.22
71195;BME280;58908;51.426;7.714;2023-06-10T11:05:00;99676.66;;;28.15;56.02
71195;BME280;58908;51.426;7.714;2023-06-10T11:07:28;99678.66;;;28.34;56.74
71195;BME280;58908;51.426;7.714;2023-06-10T11:09:58;99682.91;;;27.82;56.64
71195;BME280;58908;51.426;7.714;2023-06-10T11:12:25;99674.06;;;28.35;56.32
71195;BME280;58908;51.426;7.714;2023-06-10T11:14:53;99668.47;;;28.09;56.49
71195;BME280;58908;51.426;7.714;2023-06-10T11:17:20;99673.63;;;28.38;54.71
71195;BME280;58908;51.426;7.714;2023-06-10T11:19:47;99666.34;;;28.38;53.28
71195;BME280;58908;51.426;7.714;2023-06-10T11:22:16;99671.72;;;28.85;55.12
71195;BME280;58908;51.426;7.714;2023-06-10T11:24:44;99660.81;;;28.19;53.88
71195;BME280;58908;51.426;7.714;2023-06-10T11:27:16;99654.28;;;28.07;52.76
71195;BME280;58908;51.426;7.714;2023-06-10T11:29:59;99658.84;;;28.06;55.02
71195;BME280;58908;51.426;7.714;2023-06-10T11:32:43;99649.66;;;28.48;53.06
71195;BME280;58908;51.426;7.714;2023-06-10T11:35:11;99643.59;;;29.19;53.57
71195;BME280;58908;51.426;7.714;2023-06-10T11:37:37;99648.53;;;28.89;53.55
71195;BME280;58908;51.426;7.714;2023-06-10T11:40:04;99647.97;;;28.00;52.66
71195;BME280;58908;51.426;7.714;2023-06-10T11:42:32;99638.22;;;28.12;52.17
71195;BME280;58908;51.426;7.714;2023-06-10T11:44:58;99645.53;;;28.52;54.82
71195;BME280;58908;51.426;7.714;2023-06-10T11:47:27;99643.59;;;28.39;53.22
71195;BME280;58908;51.426;7.714;2023-06-10T11:49:55;99641.72;;;28.33;53.14
71195;BME280;58908;51.426;7.714;2023-06-10T11:52:27;99645.75;;;28.10;54.23
71195;BME280;58908;51.426;7.714;2023-06-10T11:54:54;99634.44;;;28.06;54.78
71195;BME280;58908;51.426;7.714;2023-06-10T11:57:20;99631.63;;;28.27;51.74
71195;BME280;58908;51.426;7.714;2023-06-10T11:59:47;99632.81;;;28.12;50.84
71195;BME280;58908;51.426;7.714;2023-06-10T12:02:14;99631.91;;;27.98;51.11
71195;BME280;58908;51.426;7.714;2023-06-10T12:04:40;99634.38;;;28.34;51.24
71195;BME280;58908;51.426;7.714;2023-06-10T12:07:07;99632.38;;;28.15;48.55
71195;BME280;58908;51.426;7.714;2023-06-10T12:09:34;99631.31;;;28.09;50.38
71195;BME280;58908;51.426;7.714;2023-06-10T12:12:01;99630.59;;;27.88;49.35
71195;BME280;58908;51.426;7.714;2023-06-10T12:17:13;99628.28;;;28.32;50.65
71195;BME280;58908;51.426;7.714;2023-06-10T12:19:40;99623.03;;;28.24;51.66
71195;BME280;58908;51.426;7.714;2023-06-10T12:22:06;99617.63;;;28.30;50.26
71195;BME280;58908;51.426;7.714;2023-06-10T12:24:32;99617.22;;;27.86;50.51
71195;BME280;58908;51.426;7.714;2023-06-10T12:27:00;99612.56;;;28.08;49.77
71195;BME280;58908;51.426;7.714;2023-06-10T12:29:26;99614.09;;;28.23;49.28
71195;BME280;58908;51.426;7.714;2023-06-10T12:31:55;99614.09;;;28.23;49.09
71195;BME280;58908;51.426;7.714;2023-06-10T12:34:27;99618.28;;;28.32;50.67
71195;BME280;58908;51.426;7.714;2023-06-10T12:36:54;99608.78;;;28.69;49.40
71195;BME280;58908;51.426;7.714;2023-06-10T12:39:20;99611.03;;;28.46;50.29
71195;BME280;58908;51.426;7.714;2023-06-10T12:41:47;99618.59;;;28.63;50.91
71195;BME280;58908;51.426;7.714;2023-06-10T12:44:15;99617.97;;;28.68;49.83
71195;BME280;58908;51.426;7.714;2023-06-10T12:46:42;99605.28;;;28.21;48.51
71195;BME280;58908;51.426;7.714;2023-06-10T12:49:08;99600.47;;;28.10;48.22
71195;BME280;58908;51.426;7.714;2023-06-10T12:51:44;99607.25;;;28.40;47.99
71195;BME280;58908;51.426;7.714;2023-06-10T12:54:11;99608.75;;;28.43;48.43
71195;BME280;58908;51.426;7.714;2023-06-10T12:56:37;99610.34;;;28.31;47.82